sensor_id;sensor_type;location;lat;lon;timestamp;P1;P4;P2;P0;N10;N4;N25;N1;N05;TS
72225;SPS30;60130;52.250;5.048;2023-07-16T00:00:04;1.29;;1.16;;;;;;;
72225;SPS30;60130;52.250;5.048;2023-07-16T00:05:00;1.77;;1.58;;;;;;;
72225;SPS30;60130;52.250;5.048;2023-07-16T00:10:00;1.66;;1.48;;;;;;;
72225;SPS30;60130;52.250;5.048;2023-07-16T00:15:00;1.98;;1.74;;;;;;;
72225;SPS30;60130;52.250;5.048;2023-07-16T00:20:00;1.72;;1.52;;;;;;;
72225;SPS30;60130;52.250;5.048;2023-07-16T00:25:00;1.32;;1.18;;;;;;;
72225;SPS30;60130;52.250;5.048;2023-07-16T00:30:00;1.99;;1.80;;;;;;;
72225;SPS30;60130;52.250;5.048;2023-07-16T00:35:00;2.12;;1.96;;;;;;;
72225;SPS30;60130;52.250;5.048;2023-07-16T00:40:00;1.99;;1.82;;;;;;;
72225;SPS30;60130;52.250;5.048;2023-07-16T00:45:01;2.26;;2.04;;;;;;;
72225;SPS30;60130;52.250;5.048;2023-07-16T00:50:00;3.22;;2.85;;;;;;;
72225;SPS30;60130;52.250;5.048;2023-07-16T00:55:00;1.98;;1.81;;;;;;;
72225;SPS30;60130;52.250;5.048;2023-07-16T01:00:03;2.21;;2.00;;;;;;;
72225;SPS30;60130;52.250;5.048;2023-07-16T01:05:00;2.28;;2.10;;;;;;;
72225;SPS30;60130;52.250;5.048;2023-07-16T01:10:00;2.05;;1.88;;;;;;;
72225;SPS30;60130;52.250;5.048;2023-07-16T01:15:00;2.27;;2.10;;;;;;;
72225;SPS30;60130;52.250;5.048;2023-07-16T01:20:03;2.07;;1.91;;;;;;;
72225;SPS30;60130;52.250;5.048;2023-07-16T01:25:02;2.08;;1.91;;;;;;;
72225;SPS30;60130;52.250;5.048;2023-07-16T01:30:04;2.10;;1.92;;;;;;;
72225;SPS30;60130;52.250;5.048;2023-07-16T01:35:00;2.74;;2.50;;;;;;;
72225;SPS30;60130;52.250;5.048;2023-07-16T01:40:10;2.77;;2.55;;;;;;;
72225;SPS30;60130;52.250;5.048;2023-07-16T01:45:00;2.31;;2.02;;;;;;;
72225;SPS30;60130;52.250;5.048;2023-07-16T01:50:00;2.22;;2.05;;;;;;;
72225;SPS30;60130;52.250;5.048;2023-07-16T01:55:07;2.83;;2.57;;;;;;;
72225;SPS30;60130;52.250;5.048;2023-07-16T02:00:00;2.69;;2.43;;;;;;;
72225;SPS30;60130;52.250;5.048;2023-07-16T02:05:00;2.74;;2.51;;;;;;;
72225;SPS30;60130;52.250;5.048;2023-07-16T02:10:00;3.16;;2.92;;;;;;;
72225;SPS30;60130;52.250;5.048;2023-07-16T02:15:00;2.85;;2.68;;;;;;;
72225;SPS30;60130;52.250;5.048;2023-07-16T02:20:00;2.93;;2.68;;;;;;;
72225;SPS30;60130;52.250;5.048;2023-07-16T02:25:00;2.65;;2.43;;;;;;;
72225;SPS30;60130;52.250;5.048;2023-07-16T02:30:00;3.41;;3.03;;;;;;;
72225;SPS30;60130;52.250;5.048;2023-07-16T02:35:00;3.33;;3.08;;;;;;;
72225;SPS30;60130;52.250;5.048;2023-07-16T02:40:01;3.22;;3.00;;;;;;;
72225;SPS30;60130;52.250;5.048;2023-07-16T02:45:00;3.08;;2.92;;;;;;;
72225;SPS30;60130;52.250;5.048;2023-07-16T02:50:00;3.17;;2.89;;;;;;;
72225;SPS30;60130;52.250;5.048;2023-07-16T02:55:00;3.21;;3.03;;;;;;;
72225;SPS30;60130;52.250;5.048;2023-07-16T03:00:00;2.48;;2.28;;;;;;;
72225;SPS30;60130;52.250;5.048;2023-07-16T03:05:00;3.29;;3.10;;;;;;;
72225;SPS30;60130;52.250;5.048;2023-07-16T03:10:00;3.73;;3.47;;;;;;;
72225;SPS30;60130;52.250;5.048;2023-07-16T03:15:00;3.36;;3.17;;;;;;;
72225;SPS30;60130;52.250;5.048;2023-07-16T03:20:00;2.61;;2.46;;;;;;;
72225;SPS30;60130;52.250;5.048;2023-07-16T03:25:00;3.39;;3.11;;;;;;;
72225;SPS30;60130;52.250;5.048;2023-07-16T03:30:00;3.60;;3.35;;;;;;;
72225;SPS30;60130;52.250;5.048;2023-07-16T03:35:05;3.19;;2.97;;;;;;;
72225;SPS30;60130;52.250;5.048;2023-07-16T03:40:11;2.29;;2.10;;;;;;;
72225;SPS30;60130;52.250;5.048;2023-07-16T03:45:00;2.87;;2.71;;;;;;;
72225;SPS30;60130;52.250;5.048;2023-07-16T03:50:00;3.19;;2.81;;;;;;;
72225;SPS30;60130;52.250;5.048;2023-07-16T03:55:00;2.84;;2.58;;;;;;;
72225;SPS30;60130;52.250;5.048;2023-07-16T04:00:02;3.03;;2.86;;;;;;;
72225;SPS30;60130;52.250;5.048;2023-07-16T04:05:01;2.48;;2.31;;;;;;;
72225;SPS30;60130;52.250;5.048;2023-07-16T04:10:00;2.67;;2.44;;;;;;;
72225;SPS30;60130;52.250;5.048;2023-07-16T04:15:00;2.90;;2.56;;;;;;;
72225;SPS30;60130;52.250;5.048;2023-07-16T04:20:00;2.80;;2.53;;;;;;;
72225;SPS30;60130;52.250;5.048;2023-07-16T04:25:00;3.03;;2.73;;;;;;;
72225;SPS30;60130;52.250;5.048;2023-07-16T04:30:00;2.79;;2.56;;;;;;;
72225;SPS30;60130;52.250;5.048;2023-07-16T04:35:00;3.94;;3.69;;;;;;;
72225;SPS30;60130;52.250;5.048;2023-07-16T04:40:00;3.22;;3.01;;;;;;;
72225;SPS30;60130;52.250;5.048;2023-07-16T04:45:00;3.85;;3.53;;;;;;;
72225;SPS30;60130;52.250;5.048;2023-07-16T04:50:00;2.88;;2.66;;;;;;;
72225;SPS30;60130;52.250;5.048;2023-07-16T04:55:00;3.57;;3.29;;;;;;;
72225;SPS30;60130;52.250;5.048;2023-07-16T05:00:00;3.32;;3.08;;;;;;;
72225;SPS30;60130;52.250;5.048;2023-07-16T05:05:00;3.01;;2.78;;;;;;;
72225;SPS30;60130;52.250;5.048;2023-07-16T05:10:00;3.39;;3.15;;;;;;;
72225;SPS30;60130;52.250;5.048;2023-07-16T05:15:00;3.61;;3.32;;;;;;;
72225;SPS30;60130;52.250;5.048;2023-07-16T05:20:00;3.04;;2.79;;;;;;;
72225;SPS30;60130;52.250;5.048;2023-07-16T05:25:00;3.56;;3.30;;;;;;;
72225;SPS30;60130;52.250;5.048;2023-07-16T05:30:00;3.82;;3.56;;;;;;;
72225;SPS30;60130;52.250;5.048;2023-07-16T05:35:00;3.32;;3.04;;;;;;;
72225;SPS30;60130;52.250;5.048;2023-07-16T05:40:00;3.67;;3.42;;;;;;;
72225;SPS30;60130;52.250;5.048;2023-07-16T05:45:00;3.40;;3.19;;;;;;;
72225;SPS30;60130;52.250;5.048;2023-07-16T05:50:04;3.50;;3.31;;;;;;;
72225;SPS30;60130;52.250;5.048;2023-07-16T05:55:00;3.18;;2.98;;;;;;;
72225;SPS30;60130;52.250;5.048;2023-07-16T06:00:00;3.14;;2.94;;;;;;;
72225;SPS30;60130;52.250;5.048;2023-07-16T06:05:00;3.24;;3.14;;;;;;;
72225;SPS30;60130;52.250;5.048;2023-07-16T06:10:04;3.51;;3.34;;;;;;;
72225;SPS30;60130;52.250;5.048;2023-07-16T06:15:00;3.32;;3.15;;;;;;;
72225;SPS30;60130;52.250;5.048;2023-07-16T06:20:00;3.03;;2.87;;;;;;;
72225;SPS30;60130;52.250;5.048;2023-07-16T06:25:00;2.95;;2.86;;;;;;;
72225;SPS30;60130;52.250;5.048;2023-07-16T06:30:00;2.81;;2.70;;;;;;;
72225;SPS30;60130;52.250;5.048;2023-07-16T06:35:00;3.02;;2.88;;;;;;;
72225;SPS30;60130;52.250;5.048;2023-07-16T06:40:00;2.87;;2.81;;;;;;;
72225;SPS30;60130;52.250;5.048;2023-07-16T06:45:00;3.34;;3.22;;;;;;;
72225;SPS30;60130;52.250;5.048;2023-07-16T06:50:00;3.34;;3.16;;;;;;;
72225;SPS30;60130;52.250;5.048;2023-07-16T06:55:00;2.90;;2.80;;;;;;;
72225;SPS30;60130;52.250;5.048;2023-07-16T07:00:00;3.57;;3.34;;;;;;;
72225;SPS30;60130;52.250;5.048;2023-07-16T07:05:00;3.24;;3.11;;;;;;;
72225;SPS30;60130;52.250;5.048;2023-07-16T07:10:04;2.37;;2.34;;;;;;;
72225;SPS30;60130;52.250;5.048;2023-07-16T07:15:00;3.00;;2.91;;;;;;;
72225;SPS30;60130;52.250;5.048;2023-07-16T07:20:00;3.03;;2.93;;;;;;;
72225;SPS30;60130;52.250;5.048;2023-07-16T07:25:00;2.79;;2.70;;;;;;;
72225;SPS30;60130;52.250;5.048;2023-07-16T07:30:00;3.56;;3.40;;;;;;;
72225;SPS30;60130;52.250;5.048;2023-07-16T07:35:00;3.35;;3.21;;;;;;;
72225;SPS30;60130;52.250;5.048;2023-07-16T07:40:00;3.39;;3.25;;;;;;;
72225;SPS30;60130;52.250;5.048;2023-07-16T07:45:00;2.72;;2.61;;;;;;;
72225;SPS30;60130;52.250;5.048;2023-07-16T07:50:00;3.13;;2.93;;;;;;;
72225;SPS30;60130;52.250;5.048;2023-07-16T07:55:06;2.91;;2.84;;;;;;;
72225;SPS30;60130;52.250;5.048;2023-07-16T08:00:00;3.48;;3.30;;;;;;;
72225;SPS30;60130;52.250;5.048;2023-07-16T08:05:00;3.98;;3.76;;;;;;;
72225;SPS30;60130;52.250;5.048;2023-07-16T08:10:00;3.41;;3.27;;;;;;;
72225;SPS30;60130;52.250;5.048;2023-07-16T08:15:00;3.26;;3.15;;;;;;;
72225;SPS30;60130;52.250;5.048;2023-07-16T08:20:00;3.45;;3.30;;;;;;;
72225;SPS30;60130;52.250;5.048;2023-07-16T08:25:00;3.66;;3.56;;;;;;;
72225;SPS30;60130;52.250;5.048;2023-07-16T08:30:00;3.90;;3.79;;;;;;;
72225;SPS30;60130;52.250;5.048;2023-07-16T08:35:00;4.08;;3.94;;;;;;;
72225;SPS30;60130;52.250;5.048;2023-07-16T08:40:00;3.64;;3.50;;;;;;;
72225;SPS30;60130;52.250;5.048;2023-07-16T08:45:00;4.26;;4.02;;;;;;;
72225;SPS30;60130;52.250;5.048;2023-07-16T08:50:00;3.95;;3.83;;;;;;;
72225;SPS30;60130;52.250;5.048;2023-07-16T08:55:00;3.80;;3.67;;;;;;;
72225;SPS30;60130;52.250;5.048;2023-07-16T09:00:00;2.71;;2.62;;;;;;;
72225;SPS30;60130;52.250;5.048;2023-07-16T09:05:00;2.47;;2.39;;;;;;;
72225;SPS30;60130;52.250;5.048;2023-07-16T09:10:00;3.95;;3.80;;;;;;;
72225;SPS30;60130;52.250;5.048;2023-07-16T09:15:00;4.23;;4.01;;;;;;;
72225;SPS30;60130;52.250;5.048;2023-07-16T09:20:01;4.13;;3.82;;;;;;;
72225;SPS30;60130;52.250;5.048;2023-07-16T09:25:00;3.66;;3.53;;;;;;;
72225;SPS30;60130;52.250;5.048;2023-07-16T09:30:00;2.72;;2.65;;;;;;;
72225;SPS30;60130;52.250;5.048;2023-07-16T09:35:00;4.28;;4.07;;;;;;;
72225;SPS30;60130;52.250;5.048;2023-07-16T09:40:00;3.71;;3.52;;;;;;;
72225;SPS30;60130;52.250;5.048;2023-07-16T09:45:00;3.02;;2.88;;;;;;;
72225;SPS30;60130;52.250;5.048;2023-07-16T09:50:01;2.81;;2.72;;;;;;;
72225;SPS30;60130;52.250;5.048;2023-07-16T09:55:00;3.52;;3.37;;;;;;;
72225;SPS30;60130;52.250;5.048;2023-07-16T10:00:08;2.83;;2.77;;;;;;;
72225;SPS30;60130;52.250;5.048;2023-07-16T10:10:00;2.95;;2.91;;;;;;;
72225;SPS30;60130;52.250;5.048;2023-07-16T10:15:00;2.67;;2.64;;;;;;;
72225;SPS30;60130;52.250;5.048;2023-07-16T10:20:01;3.07;;2.98;;;;;;;
72225;SPS30;60130;52.250;5.048;2023-07-16T10:25:00;2.38;;2.29;;;;;;;
72225;SPS30;60130;52.250;5.048;2023-07-16T10:30:01;2.90;;2.82;;;;;;;
72225;SPS30;60130;52.250;5.048;2023-07-16T10:35:05;2.48;;2.42;;;;;;;
72225;SPS30;60130;52.250;5.048;2023-07-16T10:40:00;2.95;;2.88;;;;;;;
72225;SPS30;60130;52.250;5.048;2023-07-16T10:45:01;2.97;;2.88;;;;;;;
72225;SPS30;60130;52.250;5.048;2023-07-16T10:50:00;3.59;;3.47;;;;;;;
72225;SPS30;60130;52.250;5.048;2023-07-16T10:55:00;3.36;;3.22;;;;;;;
72225;SPS30;60130;52.250;5.048;2023-07-16T11:00:00;2.80;;2.73;;;;;;;
72225;SPS30;60130;52.250;5.048;2023-07-16T11:05:00;2.53;;2.47;;;;;;;
72225;SPS30;60130;52.250;5.048;2023-07-16T11:10:00;2.42;;2.30;;;;;;;
72225;SPS30;60130;52.250;5.048;2023-07-16T11:15:00;2.87;;2.74;;;;;;;
72225;SPS30;60130;52.250;5.048;2023-07-16T11:20:00;2.26;;2.20;;;;;;;
72225;SPS30;60130;52.250;5.048;2023-07-16T11:25:10;2.31;;2.28;;;;;;;
72225;SPS30;60130;52.250;5.048;2023-07-16T11:30:00;1.69;;1.63;;;;;;;
72225;SPS30;60130;52.250;5.048;2023-07-16T11:35:00;1.88;;1.79;;;;;;;
72225;SPS30;60130;52.250;5.048;2023-07-16T11:40:00;2.21;;2.11;;;;;;;
72225;SPS30;60130;52.250;5.048;2023-07-16T11:45:00;1.77;;1.71;;;;;;;
72225;SPS30;60130;52.250;5.048;2023-07-16T11:50:00;1.81;;1.76;;;;;;;
72225;SPS30;60130;52.250;5.048;2023-07-16T11:55:01;2.07;;1.99;;;;;;;
72225;SPS30;60130;52.250;5.048;2023-07-16T12:00:00;1.23;;1.19;;;;;;;
72225;SPS30;60130;52.250;5.048;2023-07-16T12:05:02;1.87;;1.80;;;;;;;
72225;SPS30;60130;52.250;5.048;2023-07-16T12:10:00;2.09;;2.00;;;;;;;
72225;SPS30;60130;52.250;5.048;2023-07-16T12:15:00;1.51;;1.47;;;;;;;
72225;SPS30;60130;52.250;5.048;2023-07-16T12:20:00;1.99;;1.93;;;;;;;
72225;SPS30;60130;52.250;5.048;2023-07-16T12:25:00;1.87;;1.81;;;;;;;
72225;SPS30;60130;52.250;5.048;2023-07-16T12:30:00;1.59;;1.59;;;;;;;
72225;SPS30;60130;52.250;5.048;2023-07-16T12:35:00;1.25;;1.21;;;;;;;
72225;SPS30;60130;52.250;5.048;2023-07-16T12:40:00;1.38;;1.38;;;;;;;
72225;SPS30;60130;52.250;5.048;2023-07-16T12:45:00;1.60;;1.55;;;;;;;
72225;SPS30;60130;52.250;5.048;2023-07-16T12:50:00;1.66;;1.61;;;;;;;
72225;SPS30;60130;52.250;5.048;2023-07-16T12:55:00;1.92;;1.79;;;;;;;
72225;SPS30;60130;52.250;5.048;2023-07-16T13:00:00;1.48;;1.39;;;;;;;
72225;SPS30;60130;52.250;5.048;2023-07-16T13:05:00;1.43;;1.33;;;;;;;
72225;SPS30;60130;52.250;5.048;2023-07-16T13:10:00;0.95;;0.89;;;;;;;
72225;SPS30;60130;52.250;5.048;2023-07-16T13:15:00;1.83;;1.70;;;;;;;
72225;SPS30;60130;52.250;5.048;2023-07-16T13:20:00;1.18;;1.11;;;;;;;
72225;SPS30;60130;52.250;5.048;2023-07-16T13:25:00;1.22;;1.14;;;;;;;
72225;SPS30;60130;52.250;5.048;2023-07-16T13:30:09;1.39;;1.31;;;;;;;
72225;SPS30;60130;52.250;5.048;2023-07-16T13:35:08;0.99;;0.90;;;;;;;
72225;SPS30;60130;52.250;5.048;2023-07-16T13:40:00;1.32;;1.17;;;;;;;
72225;SPS30;60130;52.250;5.048;2023-07-16T13:45:00;1.59;;1.37;;;;;;;
72225;SPS30;60130;52.250;5.048;2023-07-16T13:50:00;1.40;;1.21;;;;;;;
72225;SPS30;60130;52.250;5.048;2023-07-16T13:55:00;1.48;;1.25;;;;;;;
72225;SPS30;60130;52.250;5.048;2023-07-16T14:00:00;1.38;;1.17;;;;;;;
72225;SPS30;60130;52.250;5.048;2023-07-16T14:05:07;1.63;;1.35;;;;;;;
72225;SPS30;60130;52.250;5.048;2023-07-16T14:10:01;1.53;;1.29;;;;;;;
72225;SPS30;60130;52.250;5.048;2023-07-16T14:15:02;1.01;;0.88;;;;;;;
72225;SPS30;60130;52.250;5.048;2023-07-16T14:20:01;0.77;;0.68;;;;;;;
72225;SPS30;60130;52.250;5.048;2023-07-16T14:25:02;1.18;;1.05;;;;;;;
72225;SPS30;60130;52.250;5.048;2023-07-16T14:30:01;1.59;;1.36;;;;;;;
72225;SPS30;60130;52.250;5.048;2023-07-16T14:35:01;1.52;;1.31;;;;;;;
72225;SPS30;60130;52.250;5.048;2023-07-16T14:40:02;1.21;;1.03;;;;;;;
72225;SPS30;60130;52.250;5.048;2023-07-16T14:45:02;1.73;;1.49;;;;;;;
72225;SPS30;60130;52.250;5.048;2023-07-16T14:50:13;1.92;;1.72;;;;;;;
72225;SPS30;60130;52.250;5.048;2023-07-16T14:55:02;1.62;;1.44;;;;;;;
72225;SPS30;60130;52.250;5.048;2023-07-16T15:00:02;1.49;;1.28;;;;;;;
72225;SPS30;60130;52.250;5.048;2023-07-16T15:05:02;1.46;;1.30;;;;;;;
72225;SPS30;60130;52.250;5.048;2023-07-16T15:10:02;1.66;;1.44;;;;;;;
72225;SPS30;60130;52.250;5.048;2023-07-16T15:15:02;1.89;;1.62;;;;;;;
72225;SPS30;60130;52.250;5.048;2023-07-16T15:20:02;1.70;;1.44;;;;;;;
72225;SPS30;60130;52.250;5.048;2023-07-16T15:25:02;1.97;;1.61;;;;;;;
72225;SPS30;60130;52.250;5.048;2023-07-16T15:30:01;1.89;;1.56;;;;;;;
72225;SPS30;60130;52.250;5.048;2023-07-16T15:35:02;1.98;;1.69;;;;;;;
72225;SPS30;60130;52.250;5.048;2023-07-16T15:40:14;1.29;;1.11;;;;;;;
72225;SPS30;60130;52.250;5.048;2023-07-16T15:45:01;1.64;;1.39;;;;;;;
72225;SPS30;60130;52.250;5.048;2023-07-16T15:50:02;1.84;;1.59;;;;;;;
72225;SPS30;60130;52.250;5.048;2023-07-16T15:55:02;1.58;;1.31;;;;;;;
72225;SPS30;60130;52.250;5.048;2023-07-16T16:00:02;2.41;;1.98;;;;;;;
72225;SPS30;60130;52.250;5.048;2023-07-16T16:05:01;2.35;;1.91;;;;;;;
72225;SPS30;60130;52.250;5.048;2023-07-16T16:10:02;2.23;;1.82;;;;;;;
72225;SPS30;60130;52.250;5.048;2023-07-16T16:15:02;3.27;;2.70;;;;;;;
72225;SPS30;60130;52.250;5.048;2023-07-16T16:20:03;1.76;;1.49;;;;;;;
72225;SPS30;60130;52.250;5.048;2023-07-16T16:25:13;1.84;;1.51;;;;;;;
72225;SPS30;60130;52.250;5.048;2023-07-16T16:30:02;2.93;;2.39;;;;;;;
72225;SPS30;60130;52.250;5.048;2023-07-16T16:35:02;1.78;;1.49;;;;;;;
72225;SPS30;60130;52.250;5.048;2023-07-16T16:40:02;2.13;;1.77;;;;;;;
72225;SPS30;60130;52.250;5.048;2023-07-16T16:45:03;1.77;;1.49;;;;;;;
72225;SPS30;60130;52.250;5.048;2023-07-16T16:50:07;2.14;;1.78;;;;;;;
72225;SPS30;60130;52.250;5.048;2023-07-16T16:55:02;1.79;;1.52;;;;;;;
72225;SPS30;60130;52.250;5.048;2023-07-16T17:00:01;1.98;;1.63;;;;;;;
72225;SPS30;60130;52.250;5.048;2023-07-16T17:05:02;1.59;;1.30;;;;;;;
72225;SPS30;60130;52.250;5.048;2023-07-16T17:10:02;3.95;;3.33;;;;;;;
72225;SPS30;60130;52.250;5.048;2023-07-16T17:15:02;2.01;;1.73;;;;;;;
72225;SPS30;60130;52.250;5.048;2023-07-16T17:20:11;1.58;;1.38;;;;;;;
72225;SPS30;60130;52.250;5.048;2023-07-16T17:25:02;1.23;;1.08;;;;;;;
72225;SPS30;60130;52.250;5.048;2023-07-16T17:35:02;1.37;;1.22;;;;;;;
72225;SPS30;60130;52.250;5.048;2023-07-16T17:40:02;1.44;;1.25;;;;;;;
72225;SPS30;60130;52.250;5.048;2023-07-16T17:45:02;1.34;;1.17;;;;;;;
72225;SPS30;60130;52.250;5.048;2023-07-16T17:50:01;1.13;;0.99;;;;;;;
72225;SPS30;60130;52.250;5.048;2023-07-16T17:55:02;1.72;;1.50;;;;;;;
72225;SPS30;60130;52.250;5.048;2023-07-16T18:00:02;1.58;;1.35;;;;;;;
72225;SPS30;60130;52.250;5.048;2023-07-16T18:05:02;1.78;;1.59;;;;;;;
72225;SPS30;60130;52.250;5.048;2023-07-16T18:10:02;1.38;;1.24;;;;;;;
72225;SPS30;60130;52.250;5.048;2023-07-16T18:15:04;1.34;;1.19;;;;;;;
72225;SPS30;60130;52.250;5.048;2023-07-16T18:20:02;1.37;;1.21;;;;;;;
72225;SPS30;60130;52.250;5.048;2023-07-16T18:25:02;1.30;;1.15;;;;;;;
72225;SPS30;60130;52.250;5.048;2023-07-16T18:30:02;1.97;;1.67;;;;;;;
72225;SPS30;60130;52.250;5.048;2023-07-16T18:35:03;1.27;;1.08;;;;;;;
72225;SPS30;60130;52.250;5.048;2023-07-16T18:40:02;1.72;;1.46;;;;;;;
72225;SPS30;60130;52.250;5.048;2023-07-16T18:45:01;1.30;;1.11;;;;;;;
72225;SPS30;60130;52.250;5.048;2023-07-16T18:50:09;1.60;;1.42;;;;;;;
72225;SPS30;60130;52.250;5.048;2023-07-16T18:55:01;1.60;;1.43;;;;;;;
72225;SPS30;60130;52.250;5.048;2023-07-16T19:00:01;1.67;;1.45;;;;;;;
72225;SPS30;60130;52.250;5.048;2023-07-16T19:05:01;2.01;;1.70;;;;;;;
72225;SPS30;60130;52.250;5.048;2023-07-16T19:10:01;1.83;;1.54;;;;;;;
72225;SPS30;60130;52.250;5.048;2023-07-16T19:15:01;1.54;;1.33;;;;;;;
72225;SPS30;60130;52.250;5.048;2023-07-16T19:20:01;1.60;;1.33;;;;;;;
72225;SPS30;60130;52.250;5.048;2023-07-16T19:25:01;1.41;;1.21;;;;;;;
72225;SPS30;60130;52.250;5.048;2023-07-16T19:30:02;1.21;;1.05;;;;;;;
72225;SPS30;60130;52.250;5.048;2023-07-16T19:35:02;1.96;;1.66;;;;;;;
72225;SPS30;60130;52.250;5.048;2023-07-16T19:40:02;1.54;;1.31;;;;;;;
72225;SPS30;60130;52.250;5.048;2023-07-16T19:45:02;1.77;;1.50;;;;;;;
72225;SPS30;60130;52.250;5.048;2023-07-16T19:50:02;1.33;;1.16;;;;;;;
72225;SPS30;60130;52.250;5.048;2023-07-16T19:55:04;2.11;;1.85;;;;;;;
72225;SPS30;60130;52.250;5.048;2023-07-16T20:00:02;1.75;;1.56;;;;;;;
72225;SPS30;60130;52.250;5.048;2023-07-16T20:05:01;1.77;;1.56;;;;;;;
72225;SPS30;60130;52.250;5.048;2023-07-16T20:10:01;1.30;;1.15;;;;;;;
72225;SPS30;60130;52.250;5.048;2023-07-16T20:15:02;2.08;;1.82;;;;;;;
72225;SPS30;60130;52.250;5.048;2023-07-16T20:20:01;1.70;;1.50;;;;;;;
72225;SPS30;60130;52.250;5.048;2023-07-16T20:25:02;1.47;;1.34;;;;;;;
72225;SPS30;60130;52.250;5.048;2023-07-16T20:30:13;2.12;;1.96;;;;;;;
72225;SPS30;60130;52.250;5.048;2023-07-16T20:35:01;1.52;;1.38;;;;;;;
72225;SPS30;60130;52.250;5.048;2023-07-16T20:40:01;1.61;;1.48;;;;;;;
72225;SPS30;60130;52.250;5.048;2023-07-16T20:50:01;2.27;;2.09;;;;;;;
72225;SPS30;60130;52.250;5.048;2023-07-16T20:55:01;1.99;;1.79;;;;;;;
72225;SPS30;60130;52.250;5.048;2023-07-16T21:00:02;1.82;;1.67;;;;;;;
72225;SPS30;60130;52.250;5.048;2023-07-16T21:05:02;2.25;;2.00;;;;;;;
72225;SPS30;60130;52.250;5.048;2023-07-16T21:10:02;2.33;;2.09;;;;;;;
72225;SPS30;60130;52.250;5.048;2023-07-16T21:15:02;1.99;;1.77;;;;;;;
72225;SPS30;60130;52.250;5.048;2023-07-16T21:20:02;2.28;;2.05;;;;;;;
72225;SPS30;60130;52.250;5.048;2023-07-16T21:25:02;2.40;;2.13;;;;;;;
72225;SPS30;60130;52.250;5.048;2023-07-16T21:30:05;1.97;;1.76;;;;;;;
72225;SPS30;60130;52.250;5.048;2023-07-16T21:35:04;2.19;;1.97;;;;;;;
72225;SPS30;60130;52.250;5.048;2023-07-16T21:40:02;1.66;;1.50;;;;;;;
72225;SPS30;60130;52.250;5.048;2023-07-16T21:45:12;2.27;;2.03;;;;;;;
72225;SPS30;60130;52.250;5.048;2023-07-16T21:50:02;2.62;;2.37;;;;;;;
72225;SPS30;60130;52.250;5.048;2023-07-16T21:55:06;2.23;;2.04;;;;;;;
72225;SPS30;60130;52.250;5.048;2023-07-16T22:00:02;2.34;;2.09;;;;;;;
72225;SPS30;60130;52.250;5.048;2023-07-16T22:05:01;2.16;;1.80;;;;;;;
72225;SPS30;60130;52.250;5.048;2023-07-16T22:10:02;2.55;;2.12;;;;;;;
72225;SPS30;60130;52.250;5.048;2023-07-16T22:15:01;2.10;;1.80;;;;;;;
72225;SPS30;60130;52.250;5.048;2023-07-16T22:20:01;1.95;;1.62;;;;;;;
72225;SPS30;60130;52.250;5.048;2023-07-16T22:25:02;1.69;;1.42;;;;;;;
72225;SPS30;60130;52.250;5.048;2023-07-16T22:30:01;1.35;;1.18;;;;;;;
72225;SPS30;60130;52.250;5.048;2023-07-16T22:35:02;1.61;;1.41;;;;;;;
72225;SPS30;60130;52.250;5.048;2023-07-16T22:40:02;1.10;;1.01;;;;;;;
72225;SPS30;60130;52.250;5.048;2023-07-16T22:45:02;1.02;;0.93;;;;;;;
72225;SPS30;60130;52.250;5.048;2023-07-16T22:50:04;1.40;;1.31;;;;;;;
72225;SPS30;60130;52.250;5.048;2023-07-16T22:55:02;1.58;;1.49;;;;;;;
72225;SPS30;60130;52.250;5.048;2023-07-16T23:00:06;1.56;;1.42;;;;;;;
72225;SPS30;60130;52.250;5.048;2023-07-16T23:05:03;0.86;;0.78;;;;;;;
72225;SPS30;60130;52.250;5.048;2023-07-16T23:10:03;1.71;;1.55;;;;;;;
72225;SPS30;60130;52.250;5.048;2023-07-16T23:15:14;1.18;;1.01;;;;;;;
72225;SPS30;60130;52.250;5.048;2023-07-16T23:20:01;1.70;;1.48;;;;;;;
72225;SPS30;60130;52.250;5.048;2023-07-16T23:25:02;1.49;;1.30;;;;;;;
72225;SPS30;60130;52.250;5.048;2023-07-16T23:30:01;1.60;;1.41;;;;;;;
72225;SPS30;60130;52.250;5.048;2023-07-16T23:35:01;1.48;;1.35;;;;;;;
72225;SPS30;60130;52.250;5.048;2023-07-16T23:40:02;1.66;;1.53;;;;;;;
72225;SPS30;60130;52.250;5.048;2023-07-16T23:45:01;1.38;;1.27;;;;;;;
72225;SPS30;60130;52.250;5.048;2023-07-16T23:50:01;1.47;;1.34;;;;;;;
72225;SPS30;60130;52.250;5.048;2023-07-16T23:55:01;2.08;;1.94;;;;;;;
